Skip Navigation Links Skip Navigation Links

Current Weather

Tegel Apt, Berlin

For information only: do not use for flight planning or navigation.
Latest weather
Observation time Saturday, January 25, 2020 10:20 AM CET
Local time Saturday, January 25, 2020 10:49 AM CET
Flight conditions Low Instrument Meteorological Conditions
Winds
Wind direction Southwest (230°)
Wind speed 9 mph
Visibility 3.1 mi.
Present weather light drizzle, mist
Sky condition
Ceiling 400 ft. broken clouds
Cloud layer broken clouds 400 ft.
Cloud layer broken clouds 600 ft.
Temperature 34°F
Dewpoint 34°F
Altimeter 30.18 in.Hg
Derived measurements
Relative humidity 100%
Wind chill 26°F
Density altitude -1786 ft.
METAR EDDT 250920Z 23008KT 5000 -DZ BR BKN004 01/01 Q1022 BECMG BKN006

Settings

Location code

InnerDrive.Weather 4.0.6770.0 Release CLR 4.0.30319.42000
Copyright ©2018 Inner Drive Technology. All rights reserved. Portions Copyright ©1986-2018 David Braverman.

Find weather

Site navigation


Skip Navigation Links

Place info

Page info

PayPal - The safer, easier way to pay online!

Return home.

Copyright ©2020 Inner Drive Technology. Purveyors of fine, hand-crafted computer software. Page printed 2020-01-25T09:49:59 UTC.